createdAt,value
2019-04-11T00:00:54.046Z,1.40
2019-04-11T00:05:57.503Z,1.30
2019-04-11T00:11:01.793Z,1.22
2019-04-11T00:16:06.776Z,1.37
2019-04-11T00:21:10.889Z,1.40
2019-04-11T00:26:14.628Z,1.12
2019-04-11T00:31:18.895Z,1.40
2019-04-11T00:36:22.475Z,1.25
2019-04-11T00:41:26.037Z,1.40
2019-04-11T00:46:29.501Z,1.47
2019-04-11T00:51:34.060Z,1.42
2019-04-11T00:56:37.643Z,1.20
2019-04-11T01:01:41.120Z,1.40
2019-04-11T01:06:44.639Z,1.25
2019-04-11T01:11:48.078Z,1.10
2019-04-11T01:16:53.194Z,0.95
2019-04-11T01:21:57.937Z,1.10
2019-04-11T01:27:01.927Z,1.20
2019-04-11T01:32:07.052Z,1.20
2019-04-11T01:37:11.395Z,1.20
2019-04-11T01:42:16.183Z,1.15
2019-04-11T01:47:22.544Z,1.00
2019-04-11T01:52:26.590Z,1.20
2019-04-11T01:57:30.141Z,1.35
2019-04-11T02:02:38.855Z,0.85
2019-04-11T02:07:42.736Z,1.40
2019-04-11T02:12:46.185Z,0.88
2019-04-11T02:17:50.841Z,1.20
2019-04-11T02:22:56.913Z,1.10
2019-04-11T02:28:02.295Z,1.02
2019-04-11T02:33:07.255Z,1.10
2019-04-11T02:38:12.571Z,1.00
2019-04-11T02:43:17.624Z,0.85
2019-04-11T02:48:21.474Z,1.12
2019-04-11T02:53:26.725Z,1.00
2019-04-11T02:58:31.840Z,1.10
2019-04-11T03:03:37.179Z,1.15
2019-04-11T03:08:41.533Z,1.10
2019-04-11T03:13:50.347Z,1.15
2019-04-11T03:19:10.336Z,1.30
2019-04-11T03:24:00.729Z,0.80
2019-04-11T03:29:06.310Z,1.00
2019-04-11T03:35:06.299Z,1.00
2019-04-11T03:39:41.149Z,0.88
2019-04-11T03:44:25.481Z,1.05
2019-04-11T03:49:36.697Z,1.15
2019-04-11T03:54:33.996Z,0.70
2019-04-11T03:59:39.014Z,1.07
2019-04-11T04:04:43.608Z,0.95
2019-04-11T04:09:49.024Z,0.98
2019-04-11T04:14:58.616Z,1.22
2019-04-11T04:20:19.453Z,0.93
2019-04-11T04:25:24.281Z,1.10
2019-04-11T04:30:29.785Z,1.17
2019-04-11T04:35:33.866Z,1.02
2019-04-11T04:40:53.819Z,0.90
2019-04-11T04:46:03.539Z,1.12
2019-04-11T04:50:52.319Z,1.10
2019-04-11T04:55:55.407Z,1.40
2019-04-11T05:00:58.865Z,1.00
2019-04-11T05:06:03.881Z,1.02
2019-04-11T05:11:07.770Z,1.12
2019-04-11T05:16:17.181Z,0.70
2019-04-11T05:21:17.051Z,1.27
2019-04-11T05:26:21.540Z,1.15
2019-04-11T05:31:25.072Z,1.30
2019-04-11T05:36:28.539Z,1.10
2019-04-11T05:41:32.002Z,1.05
2019-04-11T05:46:48.918Z,1.20
2019-04-11T05:51:45.759Z,1.00
2019-04-11T05:56:52.029Z,1.17
2019-04-11T06:02:01.487Z,0.80
2019-04-11T06:07:03.354Z,0.90
2019-04-11T06:12:17.700Z,1.00
2019-04-11T06:17:22.305Z,1.02
2019-04-11T06:22:25.840Z,1.07
2019-04-11T06:27:35.257Z,0.95
2019-04-11T06:32:52.152Z,1.15
2019-04-11T06:38:14.331Z,1.22
2019-04-11T06:43:20.301Z,0.85
2019-04-11T06:48:41.879Z,0.97
2019-04-11T06:53:48.341Z,1.00
2019-04-11T06:58:54.200Z,0.93
2019-04-11T07:04:06.095Z,0.90
2019-04-11T07:09:30.953Z,0.85
2019-04-11T07:14:48.238Z,5.10
2019-04-11T07:19:53.684Z,5.58
2019-04-11T07:25:14.628Z,5.15
2019-04-11T07:30:28.938Z,5.00
2019-04-11T07:35:34.052Z,4.12
2019-04-11T07:40:39.486Z,4.20
2019-04-11T07:45:45.039Z,6.17
2019-04-11T07:50:48.794Z,5.72
2019-04-11T07:55:53.148Z,6.93
2019-04-11T08:01:01.503Z,6.20
2019-04-11T08:06:07.476Z,5.47
2019-04-11T08:11:15.756Z,4.70
2019-04-11T08:16:21.005Z,5.20
2019-04-11T08:21:42.798Z,5.03
2019-04-11T08:27:04.595Z,4.72
2019-04-11T08:32:12.110Z,4.00
2019-04-11T08:37:27.496Z,4.37
2019-04-11T08:42:33.727Z,4.25
2019-04-11T08:47:46.373Z,4.73
2019-04-11T08:52:52.060Z,4.63
2019-04-11T08:57:58.309Z,4.70
2019-04-11T09:03:03.520Z,4.25
2019-04-11T09:08:09.946Z,4.30
2019-04-11T09:13:20.750Z,3.90
2019-04-11T09:18:24.214Z,4.75
2019-04-11T09:23:27.950Z,3.77
2019-04-11T09:28:33.471Z,4.62
2019-04-11T09:33:44.921Z,3.90
2019-04-11T09:38:50.754Z,4.70
2019-04-11T09:43:56.059Z,4.42
2019-04-11T09:49:04.509Z,3.45
2019-04-11T09:54:15.632Z,3.70
2019-04-11T09:59:36.978Z,4.28
2019-04-11T10:04:42.265Z,3.50
2019-04-11T10:10:02.748Z,4.03
2019-04-11T10:15:09.203Z,4.12
2019-04-11T10:20:18.342Z,3.80
2019-04-11T10:25:23.494Z,3.33
2019-04-11T10:30:34.012Z,3.25
2019-04-11T10:35:42.810Z,3.50
2019-04-11T10:41:00.778Z,3.52
2019-04-11T10:46:22.987Z,3.67
2019-04-11T10:51:45.546Z,3.60
2019-04-11T10:56:57.856Z,3.30
2019-04-11T11:02:06.641Z,3.25
2019-04-11T11:07:11.564Z,3.15
2019-04-11T11:12:21.086Z,3.42
2019-04-11T11:17:54.821Z,3.10
2019-04-11T11:22:53.981Z,2.80
2019-04-11T11:27:57.957Z,3.62
2019-04-11T11:33:02.274Z,2.55
2019-04-11T11:38:07.421Z,3.25
2019-04-11T11:43:12.703Z,2.92
2019-04-11T11:48:20.686Z,3.87
2019-04-11T11:53:26.725Z,3.65
2019-04-11T11:58:42.685Z,4.12
2019-04-11T12:04:00.246Z,3.42
2019-04-11T12:09:15.477Z,3.10
2019-04-11T12:14:29.591Z,2.80
2019-04-11T12:19:44.682Z,2.50
2019-04-11T12:24:50.392Z,2.67
2019-04-11T12:29:55.496Z,2.83
2019-04-11T12:35:06.278Z,2.52
2019-04-11T12:40:29.597Z,2.50
2019-04-11T12:45:34.696Z,2.85
2019-04-11T12:50:56.101Z,3.10
2019-04-11T12:56:01.200Z,3.17
2019-04-11T13:01:09.206Z,4.33
2019-04-11T13:06:34.841Z,3.35
2019-04-11T13:11:32.842Z,3.50
2019-04-11T13:16:37.487Z,3.83
2019-04-11T13:21:48.062Z,3.47
2019-04-11T13:27:09.692Z,3.80
2019-04-11T13:32:29.645Z,3.65
2019-04-11T13:37:51.311Z,4.05
2019-04-11T13:43:12.860Z,3.47
2019-04-11T13:48:34.429Z,3.52
2019-04-11T13:53:39.532Z,4.17
2019-04-11T13:59:01.019Z,4.20
2019-04-11T14:04:08.716Z,4.12
2019-04-11T14:09:13.113Z,3.70
2019-04-11T14:14:18.217Z,3.87
2019-04-11T14:19:41.414Z,4.03
2019-04-11T14:25:16.265Z,4.10
2019-04-11T14:30:37.314Z,4.10
2019-04-11T14:35:57.854Z,3.98
2019-04-11T14:41:03.010Z,3.65
2019-04-11T14:46:13.739Z,3.87
2019-04-11T14:51:30.765Z,3.85
2019-04-11T14:56:35.875Z,4.10
2019-04-11T15:01:40.269Z,3.92
2019-04-11T15:06:51.052Z,4.12
2019-04-11T15:11:56.159Z,3.67
2019-04-11T15:17:13.523Z,4.28
2019-04-11T15:22:35.612Z,3.98
2019-04-11T15:27:56.267Z,3.90
2019-04-11T15:33:19.407Z,3.40
2019-04-11T15:38:39.102Z,3.83
2019-04-11T15:43:50.127Z,3.47
2019-04-11T15:49:20.488Z,3.40
2019-04-11T15:54:18.012Z,3.98
2019-04-11T15:59:25.639Z,3.50
2019-04-11T16:04:30.747Z,3.25
2019-04-11T16:09:34.315Z,3.20
2019-04-11T16:14:37.795Z,3.40
2019-04-11T16:19:47.900Z,3.85
2019-04-11T16:25:01.194Z,3.37
2019-04-11T16:30:10.154Z,3.15
2019-04-11T16:35:15.359Z,3.70
2019-04-11T16:40:36.533Z,3.77
2019-04-11T16:45:58.011Z,3.25
2019-04-11T16:51:01.473Z,2.98
2019-04-11T16:56:05.012Z,3.20
2019-04-11T17:01:08.471Z,3.10
2019-04-11T17:06:16.309Z,3.40
2019-04-11T17:11:19.938Z,3.60
2019-04-11T17:16:23.403Z,3.20
2019-04-11T17:21:26.868Z,3.12
2019-04-11T17:26:30.327Z,2.90
2019-04-11T17:31:33.790Z,2.80
2019-04-11T17:36:37.254Z,3.05
2019-04-11T17:41:42.064Z,2.50
2019-04-11T17:46:46.056Z,2.90
2019-04-11T17:51:55.577Z,3.37
2019-04-11T17:56:57.503Z,2.85
2019-04-11T18:01:59.965Z,2.65
2019-04-11T18:07:03.434Z,2.65
2019-04-11T18:12:05.891Z,3.22
2019-04-11T18:17:09.301Z,3.15
2019-04-11T18:22:13.629Z,3.20
2019-04-11T18:27:21.528Z,2.60
2019-04-11T18:32:23.150Z,2.22
2019-04-11T18:37:26.610Z,2.55
2019-04-11T18:42:30.066Z,2.35
2019-04-11T18:47:33.526Z,2.72
2019-04-11T18:52:36.986Z,2.62
2019-04-11T18:57:41.984Z,2.37
2019-04-11T19:02:45.514Z,2.35
2019-04-11T19:07:49.645Z,1.80
2019-04-11T19:12:53.097Z,2.30
2019-04-11T19:18:06.266Z,2.12
2019-04-11T19:23:01.752Z,1.90
2019-04-11T19:28:05.215Z,2.27
2019-04-11T19:33:08.673Z,1.95
2019-04-11T19:38:25.885Z,2.08
2019-04-11T19:43:29.359Z,1.60
2019-04-11T19:48:32.802Z,2.12
2019-04-11T19:53:36.260Z,1.70
2019-04-11T19:58:39.722Z,2.05
2019-04-11T20:03:43.181Z,2.17
2019-04-11T20:08:47.821Z,1.87
2019-04-11T20:13:51.383Z,1.75
2019-04-11T20:18:57.535Z,1.92
2019-04-11T20:24:00.033Z,1.97
2019-04-11T20:29:03.505Z,1.77
2019-04-11T20:34:08.040Z,1.62
2019-04-11T20:39:14.914Z,1.62
2019-04-11T20:44:16.791Z,1.80
2019-04-11T20:49:20.256Z,1.72
2019-04-11T20:54:23.721Z,1.50
2019-04-11T20:59:34.314Z,1.52
2019-04-11T21:04:32.360Z,1.62
2019-04-11T21:09:35.827Z,1.45
2019-04-11T21:14:39.290Z,1.77
2019-04-11T21:19:42.755Z,1.50
2019-04-11T21:24:46.221Z,1.72
2019-04-11T21:29:49.679Z,1.70
2019-04-11T21:34:53.142Z,1.35
2019-04-11T21:39:56.607Z,1.50
2019-04-11T21:45:00.070Z,1.60
2019-04-11T21:50:09.125Z,1.45
2019-04-11T21:55:13.058Z,1.52
2019-04-11T22:00:26.034Z,1.40
2019-04-11T22:05:29.855Z,1.42
2019-04-11T22:10:33.456Z,1.57
2019-04-11T22:15:36.943Z,1.70
2019-04-11T22:20:40.438Z,1.37
2019-04-11T22:25:43.915Z,1.30
2019-04-11T22:30:47.862Z,1.10
2019-04-11T22:35:51.346Z,1.37
2019-04-11T22:40:54.817Z,1.10
2019-04-11T22:45:58.294Z,1.32
2019-04-11T22:51:01.764Z,1.00
2019-04-11T22:56:05.247Z,1.15
2019-04-11T23:01:08.725Z,1.32
2019-04-11T23:06:12.203Z,1.40
2019-04-11T23:11:15.724Z,1.37
2019-04-11T23:16:19.163Z,1.27
2019-04-11T23:21:22.645Z,1.10
2019-04-11T23:26:26.122Z,1.20
2019-04-11T23:31:29.605Z,1.17
2019-04-11T23:36:33.101Z,1.10
2019-04-11T23:41:36.585Z,1.37
2019-04-11T23:46:40.062Z,1.17
2019-04-11T23:51:43.532Z,0.82
2019-04-11T23:56:47.015Z,1.47
